sensor_id;sensor_type;location;lat;lon;timestamp;temperature;humidity
21167;DHT22;10741;52.272;9.580;2023-11-19T00:01:40;7.10;99.90
21167;DHT22;10741;52.272;9.580;2023-11-19T00:04:06;7.10;99.90
21167;DHT22;10741;52.272;9.580;2023-11-19T00:06:32;7.10;99.90
21167;DHT22;10741;52.272;9.580;2023-11-19T00:08:57;7.10;99.90
21167;DHT22;10741;52.272;9.580;2023-11-19T00:11:23;7.20;99.90
21167;DHT22;10741;52.272;9.580;2023-11-19T00:13:49;7.20;99.90
21167;DHT22;10741;52.272;9.580;2023-11-19T00:16:15;7.20;99.90
21167;DHT22;10741;52.272;9.580;2023-11-19T00:18:42;7.20;99.90
21167;DHT22;10741;52.272;9.580;2023-11-19T00:21:07;7.20;99.90
21167;DHT22;10741;52.272;9.580;2023-11-19T00:23:36;7.20;99.90
21167;DHT22;10741;52.272;9.580;2023-11-19T00:26:02;7.30;99.90
21167;DHT22;10741;52.272;9.580;2023-11-19T00:28:28;7.30;99.90
21167;DHT22;10741;52.272;9.580;2023-11-19T00:30:54;7.30;99.90
21167;DHT22;10741;52.272;9.580;2023-11-19T00:33:19;7.30;99.90
21167;DHT22;10741;52.272;9.580;2023-11-19T00:35:45;7.40;99.90
21167;DHT22;10741;52.272;9.580;2023-11-19T00:38:11;7.40;99.90
21167;DHT22;10741;52.272;9.580;2023-11-19T00:40:37;7.40;99.90
21167;DHT22;10741;52.272;9.580;2023-11-19T00:43:02;7.40;99.90
21167;DHT22;10741;52.272;9.580;2023-11-19T00:45:28;7.40;99.90
21167;DHT22;10741;52.272;9.580;2023-11-19T00:47:55;7.40;99.90
21167;DHT22;10741;52.272;9.580;2023-11-19T00:50:21;7.40;99.90
21167;DHT22;10741;52.272;9.580;2023-11-19T00:52:48;7.50;99.90
21167;DHT22;10741;52.272;9.580;2023-11-19T00:55:13;7.50;99.90
21167;DHT22;10741;52.272;9.580;2023-11-19T00:57:39;7.60;99.90
21167;DHT22;10741;52.272;9.580;2023-11-19T01:00:06;7.60;99.90
21167;DHT22;10741;52.272;9.580;2023-11-19T01:02:47;7.60;99.90
21167;DHT22;10741;52.272;9.580;2023-11-19T01:05:15;7.60;99.90
21167;DHT22;10741;52.272;9.580;2023-11-19T01:07:40;7.60;99.90
21167;DHT22;10741;52.272;9.580;2023-11-19T01:10:06;7.60;99.90
21167;DHT22;10741;52.272;9.580;2023-11-19T01:12:34;7.60;99.90
21167;DHT22;10741;52.272;9.580;2023-11-19T01:14:59;7.60;99.90
21167;DHT22;10741;52.272;9.580;2023-11-19T01:17:26;7.60;99.90
21167;DHT22;10741;52.272;9.580;2023-11-19T01:19:52;7.60;99.90
21167;DHT22;10741;52.272;9.580;2023-11-19T01:22:17;7.60;99.90
21167;DHT22;10741;52.272;9.580;2023-11-19T01:24:44;7.60;99.90
21167;DHT22;10741;52.272;9.580;2023-11-19T01:27:10;7.70;99.90
21167;DHT22;10741;52.272;9.580;2023-11-19T01:29:35;7.70;99.90
21167;DHT22;10741;52.272;9.580;2023-11-19T01:32:03;7.70;99.90
21167;DHT22;10741;52.272;9.580;2023-11-19T01:34:29;7.70;99.90
21167;DHT22;10741;52.272;9.580;2023-11-19T01:36:55;7.70;99.90
21167;DHT22;10741;52.272;9.580;2023-11-19T01:39:21;7.70;99.90
21167;DHT22;10741;52.272;9.580;2023-11-19T01:41:47;7.70;99.90
21167;DHT22;10741;52.272;9.580;2023-11-19T01:44:13;7.80;99.90
21167;DHT22;10741;52.272;9.580;2023-11-19T01:46:40;7.80;99.90
21167;DHT22;10741;52.272;9.580;2023-11-19T01:49:07;7.90;99.90
21167;DHT22;10741;52.272;9.580;2023-11-19T01:51:34;7.80;99.90
21167;DHT22;10741;52.272;9.580;2023-11-19T01:54:00;7.90;99.90
21167;DHT22;10741;52.272;9.580;2023-11-19T01:56:27;7.80;99.90
21167;DHT22;10741;52.272;9.580;2023-11-19T01:58:54;7.90;99.90
21167;DHT22;10741;52.272;9.580;2023-11-19T02:01:21;7.90;99.90
21167;DHT22;10741;52.272;9.580;2023-11-19T02:03:47;7.80;99.90
21167;DHT22;10741;52.272;9.580;2023-11-19T02:06:13;7.80;99.90
21167;DHT22;10741;52.272;9.580;2023-11-19T02:08:39;7.80;99.90
21167;DHT22;10741;52.272;9.580;2023-11-19T02:11:05;7.80;99.90
21167;DHT22;10741;52.272;9.580;2023-11-19T02:13:32;7.80;99.90
21167;DHT22;10741;52.272;9.580;2023-11-19T02:15:59;7.90;99.90
21167;DHT22;10741;52.272;9.580;2023-11-19T02:18:26;7.90;99.90
21167;DHT22;10741;52.272;9.580;2023-11-19T02:20:56;7.90;99.90
21167;DHT22;10741;52.272;9.580;2023-11-19T02:23:22;7.90;99.90
21167;DHT22;10741;52.272;9.580;2023-11-19T02:28:26;8.00;99.90
21167;DHT22;10741;52.272;9.580;2023-11-19T02:30:52;8.00;99.90
21167;DHT22;10741;52.272;9.580;2023-11-19T02:33:18;8.00;99.90
21167;DHT22;10741;52.272;9.580;2023-11-19T02:35:44;8.10;99.90
21167;DHT22;10741;52.272;9.580;2023-11-19T02:38:10;8.10;99.90
21167;DHT22;10741;52.272;9.580;2023-11-19T02:40:36;8.10;99.90
21167;DHT22;10741;52.272;9.580;2023-11-19T02:43:02;8.10;99.90
21167;DHT22;10741;52.272;9.580;2023-11-19T02:45:30;8.10;99.90
21167;DHT22;10741;52.272;9.580;2023-11-19T02:47:56;8.20;99.90
21167;DHT22;10741;52.272;9.580;2023-11-19T02:50:22;8.40;99.90
21167;DHT22;10741;52.272;9.580;2023-11-19T02:52:53;8.40;99.90
21167;DHT22;10741;52.272;9.580;2023-11-19T02:55:19;8.40;99.90
21167;DHT22;10741;52.272;9.580;2023-11-19T02:57:45;8.40;99.90
21167;DHT22;10741;52.272;9.580;2023-11-19T03:00:18;8.40;99.90
21167;DHT22;10741;52.272;9.580;2023-11-19T03:02:49;8.40;99.90
21167;DHT22;10741;52.272;9.580;2023-11-19T03:05:24;8.40;99.90
21167;DHT22;10741;52.272;9.580;2023-11-19T03:07:50;8.40;99.90
21167;DHT22;10741;52.272;9.580;2023-11-19T03:10:16;8.50;99.90
21167;DHT22;10741;52.272;9.580;2023-11-19T03:12:43;8.50;99.90
21167;DHT22;10741;52.272;9.580;2023-11-19T03:15:09;8.50;99.90
21167;DHT22;10741;52.272;9.580;2023-11-19T03:17:38;8.50;99.90
21167;DHT22;10741;52.272;9.580;2023-11-19T03:20:05;8.60;99.90
21167;DHT22;10741;52.272;9.580;2023-11-19T03:22:32;8.60;99.90
21167;DHT22;10741;52.272;9.580;2023-11-19T03:24:59;8.60;99.90
21167;DHT22;10741;52.272;9.580;2023-11-19T03:27:26;8.70;99.90
21167;DHT22;10741;52.272;9.580;2023-11-19T03:29:52;8.70;99.90
21167;DHT22;10741;52.272;9.580;2023-11-19T03:32:18;8.70;99.90
21167;DHT22;10741;52.272;9.580;2023-11-19T03:34:43;8.80;99.90
21167;DHT22;10741;52.272;9.580;2023-11-19T03:37:09;8.80;99.90
21167;DHT22;10741;52.272;9.580;2023-11-19T03:39:35;8.80;99.90
21167;DHT22;10741;52.272;9.580;2023-11-19T03:42:01;8.80;99.90
21167;DHT22;10741;52.272;9.580;2023-11-19T03:44:27;8.80;99.90
21167;DHT22;10741;52.272;9.580;2023-11-19T03:46:53;8.80;99.90
21167;DHT22;10741;52.272;9.580;2023-11-19T03:49:18;8.90;99.90
21167;DHT22;10741;52.272;9.580;2023-11-19T03:51:44;8.90;99.90
21167;DHT22;10741;52.272;9.580;2023-11-19T03:54:10;8.90;99.90
21167;DHT22;10741;52.272;9.580;2023-11-19T03:56:37;8.90;99.90
21167;DHT22;10741;52.272;9.580;2023-11-19T03:59:03;8.90;99.90
21167;DHT22;10741;52.272;9.580;2023-11-19T04:01:28;9.00;99.90
21167;DHT22;10741;52.272;9.580;2023-11-19T04:03:54;9.00;99.90
21167;DHT22;10741;52.272;9.580;2023-11-19T04:06:21;9.00;99.90
21167;DHT22;10741;52.272;9.580;2023-11-19T04:08:47;9.00;99.90
21167;DHT22;10741;52.272;9.580;2023-11-19T04:11:13;9.10;99.90
21167;DHT22;10741;52.272;9.580;2023-11-19T04:13:38;9.10;99.90
21167;DHT22;10741;52.272;9.580;2023-11-19T04:16:04;9.20;99.90
21167;DHT22;10741;52.272;9.580;2023-11-19T04:18:30;9.40;99.90
21167;DHT22;10741;52.272;9.580;2023-11-19T04:20:57;9.40;99.90
21167;DHT22;10741;52.272;9.580;2023-11-19T04:23:24;9.50;99.90
21167;DHT22;10741;52.272;9.580;2023-11-19T04:25:50;9.60;99.90
21167;DHT22;10741;52.272;9.580;2023-11-19T04:28:16;9.70;99.90
21167;DHT22;10741;52.272;9.580;2023-11-19T04:30:43;9.80;99.90
21167;DHT22;10741;52.272;9.580;2023-11-19T04:33:09;10.00;99.90
21167;DHT22;10741;52.272;9.580;2023-11-19T04:35:35;9.90;99.90
21167;DHT22;10741;52.272;9.580;2023-11-19T04:38:02;10.00;99.90
21167;DHT22;10741;52.272;9.580;2023-11-19T04:40:27;10.00;99.90
21167;DHT22;10741;52.272;9.580;2023-11-19T04:42:53;10.10;99.90
21167;DHT22;10741;52.272;9.580;2023-11-19T04:45:19;10.20;99.90
21167;DHT22;10741;52.272;9.580;2023-11-19T04:47:45;10.30;99.90
21167;DHT22;10741;52.272;9.580;2023-11-19T04:50:11;10.30;99.90
21167;DHT22;10741;52.272;9.580;2023-11-19T04:52:39;10.40;99.90
21167;DHT22;10741;52.272;9.580;2023-11-19T04:55:06;10.40;99.90
21167;DHT22;10741;52.272;9.580;2023-11-19T04:57:32;10.40;99.90
21167;DHT22;10741;52.272;9.580;2023-11-19T04:59:58;10.50;99.90
21167;DHT22;10741;52.272;9.580;2023-11-19T05:02:24;10.60;99.90
21167;DHT22;10741;52.272;9.580;2023-11-19T05:04:50;10.60;99.90
21167;DHT22;10741;52.272;9.580;2023-11-19T05:07:16;10.60;99.90
21167;DHT22;10741;52.272;9.580;2023-11-19T05:09:41;10.60;99.90
21167;DHT22;10741;52.272;9.580;2023-11-19T05:12:08;10.60;99.90
21167;DHT22;10741;52.272;9.580;2023-11-19T05:14:38;10.60;99.90
21167;DHT22;10741;52.272;9.580;2023-11-19T05:17:04;10.60;99.90
21167;DHT22;10741;52.272;9.580;2023-11-19T05:19:29;10.70;99.90
21167;DHT22;10741;52.272;9.580;2023-11-19T05:21:55;10.70;99.90
21167;DHT22;10741;52.272;9.580;2023-11-19T05:24:21;10.80;99.90
21167;DHT22;10741;52.272;9.580;2023-11-19T05:26:46;10.70;99.90
21167;DHT22;10741;52.272;9.580;2023-11-19T05:29:13;10.70;99.90
21167;DHT22;10741;52.272;9.580;2023-11-19T05:31:38;10.80;99.90
21167;DHT22;10741;52.272;9.580;2023-11-19T05:34:04;10.80;99.90
21167;DHT22;10741;52.272;9.580;2023-11-19T05:36:30;10.80;99.90
21167;DHT22;10741;52.272;9.580;2023-11-19T05:38:56;10.90;99.90
21167;DHT22;10741;52.272;9.580;2023-11-19T05:41:21;10.90;99.90
21167;DHT22;10741;52.272;9.580;2023-11-19T05:43:47;11.00;99.90
21167;DHT22;10741;52.272;9.580;2023-11-19T05:46:13;10.90;99.90
21167;DHT22;10741;52.272;9.580;2023-11-19T05:48:39;10.90;99.90
21167;DHT22;10741;52.272;9.580;2023-11-19T05:51:05;10.90;99.90
21167;DHT22;10741;52.272;9.580;2023-11-19T05:53:31;10.90;99.90
21167;DHT22;10741;52.272;9.580;2023-11-19T05:55:57;10.80;99.90
21167;DHT22;10741;52.272;9.580;2023-11-19T05:58:25;10.90;99.90
21167;DHT22;10741;52.272;9.580;2023-11-19T06:00:58;10.80;99.90
21167;DHT22;10741;52.272;9.580;2023-11-19T06:03:26;10.80;99.90
21167;DHT22;10741;52.272;9.580;2023-11-19T06:05:52;10.80;99.90
21167;DHT22;10741;52.272;9.580;2023-11-19T06:08:19;10.90;99.90
21167;DHT22;10741;52.272;9.580;2023-11-19T06:10:46;10.90;99.90
21167;DHT22;10741;52.272;9.580;2023-11-19T06:13:14;10.90;99.90
21167;DHT22;10741;52.272;9.580;2023-11-19T06:15:43;11.00;99.90
21167;DHT22;10741;52.272;9.580;2023-11-19T06:18:09;11.00;99.90
21167;DHT22;10741;52.272;9.580;2023-11-19T06:20:36;11.00;99.90
21167;DHT22;10741;52.272;9.580;2023-11-19T06:23:02;11.00;99.90
21167;DHT22;10741;52.272;9.580;2023-11-19T06:25:28;11.10;99.90
21167;DHT22;10741;52.272;9.580;2023-11-19T06:27:54;11.00;99.90
21167;DHT22;10741;52.272;9.580;2023-11-19T06:30:20;11.00;99.90
21167;DHT22;10741;52.272;9.580;2023-11-19T06:32:48;11.00;99.90
21167;DHT22;10741;52.272;9.580;2023-11-19T06:35:14;11.00;99.90
21167;DHT22;10741;52.272;9.580;2023-11-19T06:37:40;11.00;99.90
21167;DHT22;10741;52.272;9.580;2023-11-19T06:40:07;10.90;99.90
21167;DHT22;10741;52.272;9.580;2023-11-19T06:42:35;11.00;99.90
21167;DHT22;10741;52.272;9.580;2023-11-19T06:45:01;11.00;99.90
21167;DHT22;10741;52.272;9.580;2023-11-19T06:47:28;11.00;99.90
21167;DHT22;10741;52.272;9.580;2023-11-19T06:49:54;11.00;99.90
21167;DHT22;10741;52.272;9.580;2023-11-19T06:52:20;11.00;99.90
21167;DHT22;10741;52.272;9.580;2023-11-19T06:54:47;11.00;99.90
21167;DHT22;10741;52.272;9.580;2023-11-19T06:57:13;10.90;99.90
21167;DHT22;10741;52.272;9.580;2023-11-19T06:59:39;10.90;99.90
21167;DHT22;10741;52.272;9.580;2023-11-19T07:02:05;10.90;99.90
21167;DHT22;10741;52.272;9.580;2023-11-19T07:04:31;10.90;99.90
21167;DHT22;10741;52.272;9.580;2023-11-19T07:06:57;10.80;99.90
21167;DHT22;10741;52.272;9.580;2023-11-19T07:09:23;10.70;99.90
21167;DHT22;10741;52.272;9.580;2023-11-19T07:11:49;10.70;99.90
21167;DHT22;10741;52.272;9.580;2023-11-19T07:14:17;10.70;99.90
21167;DHT22;10741;52.272;9.580;2023-11-19T07:16:43;10.60;99.90
21167;DHT22;10741;52.272;9.580;2023-11-19T07:19:09;10.70;99.90
21167;DHT22;10741;52.272;9.580;2023-11-19T07:21:35;10.60;99.90
21167;DHT22;10741;52.272;9.580;2023-11-19T07:24:05;10.60;99.90
21167;DHT22;10741;52.272;9.580;2023-11-19T07:26:31;10.60;99.90
21167;DHT22;10741;52.272;9.580;2023-11-19T07:28:57;10.60;99.90
21167;DHT22;10741;52.272;9.580;2023-11-19T07:31:24;10.60;99.90
21167;DHT22;10741;52.272;9.580;2023-11-19T07:33:49;10.60;99.90
21167;DHT22;10741;52.272;9.580;2023-11-19T07:36:15;10.70;99.90
21167;DHT22;10741;52.272;9.580;2023-11-19T07:38:42;10.70;99.90
21167;DHT22;10741;52.272;9.580;2023-11-19T07:41:08;10.70;99.90
21167;DHT22;10741;52.272;9.580;2023-11-19T07:43:39;10.70;99.90
21167;DHT22;10741;52.272;9.580;2023-11-19T07:46:09;10.80;99.90
21167;DHT22;10741;52.272;9.580;2023-11-19T07:48:35;10.80;99.90
21167;DHT22;10741;52.272;9.580;2023-11-19T07:51:01;10.80;99.90
21167;DHT22;10741;52.272;9.580;2023-11-19T07:53:27;10.90;99.90
21167;DHT22;10741;52.272;9.580;2023-11-19T07:55:53;10.90;99.90
21167;DHT22;10741;52.272;9.580;2023-11-19T07:58:19;10.90;99.90
21167;DHT22;10741;52.272;9.580;2023-11-19T08:00:45;11.10;99.90
21167;DHT22;10741;52.272;9.580;2023-11-19T08:03:10;11.30;99.90
21167;DHT22;10741;52.272;9.580;2023-11-19T08:05:36;11.40;99.90
21167;DHT22;10741;52.272;9.580;2023-11-19T08:08:02;11.70;99.90
21167;DHT22;10741;52.272;9.580;2023-11-19T08:10:28;12.00;99.90
21167;DHT22;10741;52.272;9.580;2023-11-19T08:12:54;12.20;99.90
21167;DHT22;10741;52.272;9.580;2023-11-19T08:15:20;11.90;99.90
21167;DHT22;10741;52.272;9.580;2023-11-19T08:17:45;11.60;99.90
21167;DHT22;10741;52.272;9.580;2023-11-19T08:20:12;11.40;99.90
21167;DHT22;10741;52.272;9.580;2023-11-19T08:22:38;11.30;99.90
21167;DHT22;10741;52.272;9.580;2023-11-19T08:25:05;11.20;99.90
21167;DHT22;10741;52.272;9.580;2023-11-19T08:27:31;11.20;99.90
21167;DHT22;10741;52.272;9.580;2023-11-19T08:29:57;11.20;99.90
21167;DHT22;10741;52.272;9.580;2023-11-19T08:32:24;11.30;99.90
21167;DHT22;10741;52.272;9.580;2023-11-19T08:34:50;11.40;99.90
21167;DHT22;10741;52.272;9.580;2023-11-19T08:37:15;11.50;99.90
21167;DHT22;10741;52.272;9.580;2023-11-19T08:39:43;11.60;99.90
21167;DHT22;10741;52.272;9.580;2023-11-19T08:42:09;12.00;99.90
21167;DHT22;10741;52.272;9.580;2023-11-19T08:44:35;12.00;99.90
21167;DHT22;10741;52.272;9.580;2023-11-19T08:47:01;12.00;99.90
21167;DHT22;10741;52.272;9.580;2023-11-19T08:49:27;11.90;99.90
21167;DHT22;10741;52.272;9.580;2023-11-19T08:51:52;11.90;99.90
21167;DHT22;10741;52.272;9.580;2023-11-19T08:54:18;11.80;99.90
21167;DHT22;10741;52.272;9.580;2023-11-19T08:56:45;11.70;99.90
21167;DHT22;10741;52.272;9.580;2023-11-19T08:59:11;11.60;99.90
21167;DHT22;10741;52.272;9.580;2023-11-19T09:01:37;11.50;99.90
21167;DHT22;10741;52.272;9.580;2023-11-19T09:04:02;11.50;99.90
21167;DHT22;10741;52.272;9.580;2023-11-19T09:06:28;11.40;99.90
21167;DHT22;10741;52.272;9.580;2023-11-19T09:08:54;11.50;99.90
21167;DHT22;10741;52.272;9.580;2023-11-19T09:11:23;11.50;99.90
21167;DHT22;10741;52.272;9.580;2023-11-19T09:13:49;11.50;99.90
21167;DHT22;10741;52.272;9.580;2023-11-19T09:16:15;11.50;99.90
21167;DHT22;10741;52.272;9.580;2023-11-19T09:18:41;11.90;99.90
21167;DHT22;10741;52.272;9.580;2023-11-19T09:21:06;12.10;99.90
21167;DHT22;10741;52.272;9.580;2023-11-19T09:23:32;12.10;99.90
21167;DHT22;10741;52.272;9.580;2023-11-19T09:26:04;12.40;99.90
21167;DHT22;10741;52.272;9.580;2023-11-19T09:28:31;12.80;99.90
21167;DHT22;10741;52.272;9.580;2023-11-19T09:30:56;13.10;99.90
21167;DHT22;10741;52.272;9.580;2023-11-19T09:33:22;13.10;99.90
21167;DHT22;10741;52.272;9.580;2023-11-19T09:35:48;12.90;99.90
21167;DHT22;10741;52.272;9.580;2023-11-19T09:38:15;13.00;99.90
21167;DHT22;10741;52.272;9.580;2023-11-19T09:40:41;13.20;99.90
21167;DHT22;10741;52.272;9.580;2023-11-19T09:43:08;13.50;99.90
21167;DHT22;10741;52.272;9.580;2023-11-19T09:45:49;13.70;99.90
21167;DHT22;10741;52.272;9.580;2023-11-19T09:48:18;13.70;99.90
21167;DHT22;10741;52.272;9.580;2023-11-19T09:50:50;13.70;99.90
21167;DHT22;10741;52.272;9.580;2023-11-19T09:53:16;13.60;99.90
21167;DHT22;10741;52.272;9.580;2023-11-19T09:55:41;13.30;99.90
21167;DHT22;10741;52.272;9.580;2023-11-19T09:58:08;13.10;99.90
21167;DHT22;10741;52.272;9.580;2023-11-19T10:00:34;13.00;99.90
21167;DHT22;10741;52.272;9.580;2023-11-19T10:03:00;13.00;99.90
21167;DHT22;10741;52.272;9.580;2023-11-19T10:05:26;12.90;99.90
21167;DHT22;10741;52.272;9.580;2023-11-19T10:07:52;13.00;99.90
21167;DHT22;10741;52.272;9.580;2023-11-19T10:10:21;13.10;99.90
21167;DHT22;10741;52.272;9.580;2023-11-19T10:12:47;13.10;99.90
21167;DHT22;10741;52.272;9.580;2023-11-19T10:15:23;13.20;99.90
21167;DHT22;10741;52.272;9.580;2023-11-19T10:17:56;13.10;99.90
21167;DHT22;10741;52.272;9.580;2023-11-19T10:20:22;13.10;99.90
21167;DHT22;10741;52.272;9.580;2023-11-19T10:22:48;12.80;99.90
21167;DHT22;10741;52.272;9.580;2023-11-19T10:25:27;12.60;99.90
21167;DHT22;10741;52.272;9.580;2023-11-19T10:27:54;12.50;99.90
21167;DHT22;10741;52.272;9.580;2023-11-19T10:30:25;12.80;99.90
21167;DHT22;10741;52.272;9.580;2023-11-19T10:33:11;13.00;99.90
21167;DHT22;10741;52.272;9.580;2023-11-19T10:35:56;13.30;99.90
21167;DHT22;10741;52.272;9.580;2023-11-19T10:38:23;13.30;99.90
21167;DHT22;10741;52.272;9.580;2023-11-19T10:40:52;13.00;99.90
21167;DHT22;10741;52.272;9.580;2023-11-19T10:43:22;12.80;99.90
21167;DHT22;10741;52.272;9.580;2023-11-19T10:45:48;13.10;99.90
21167;DHT22;10741;52.272;9.580;2023-11-19T10:48:14;13.40;99.90
21167;DHT22;10741;52.272;9.580;2023-11-19T10:50:42;13.40;99.90
21167;DHT22;10741;52.272;9.580;2023-11-19T10:53:09;13.60;99.90
21167;DHT22;10741;52.272;9.580;2023-11-19T10:55:37;13.80;99.90
21167;DHT22;10741;52.272;9.580;2023-11-19T10:58:07;13.70;99.90
21167;DHT22;10741;52.272;9.580;2023-11-19T11:00:54;13.80;99.90
21167;DHT22;10741;52.272;9.580;2023-11-19T11:03:23;14.00;99.90
21167;DHT22;10741;52.272;9.580;2023-11-19T11:05:52;13.90;99.90
21167;DHT22;10741;52.272;9.580;2023-11-19T11:08:19;13.90;99.90
21167;DHT22;10741;52.272;9.580;2023-11-19T11:10:54;13.90;99.90
21167;DHT22;10741;52.272;9.580;2023-11-19T11:13:22;13.90;99.90
21167;DHT22;10741;52.272;9.580;2023-11-19T11:15:53;13.90;99.90
21167;DHT22;10741;52.272;9.580;2023-11-19T11:18:25;13.90;99.90
21167;DHT22;10741;52.272;9.580;2023-11-19T11:21:26;14.20;99.90
21167;DHT22;10741;52.272;9.580;2023-11-19T11:24:09;14.40;99.90
21167;DHT22;10741;52.272;9.580;2023-11-19T11:27:28;14.20;99.90
21167;DHT22;10741;52.272;9.580;2023-11-19T11:32:35;13.70;99.90
21167;DHT22;10741;52.272;9.580;2023-11-19T11:35:19;13.50;99.90
21167;DHT22;10741;52.272;9.580;2023-11-19T11:37:53;13.60;99.90
21167;DHT22;10741;52.272;9.580;2023-11-19T11:40:21;13.90;99.90
21167;DHT22;10741;52.272;9.580;2023-11-19T11:42:49;14.10;99.90
21167;DHT22;10741;52.272;9.580;2023-11-19T11:45:17;14.30;99.90
21167;DHT22;10741;52.272;9.580;2023-11-19T11:50:16;14.80;99.90
21167;DHT22;10741;52.272;9.580;2023-11-19T11:55:36;15.00;99.90
21167;DHT22;10741;52.272;9.580;2023-11-19T11:58:02;14.90;99.90
21167;DHT22;10741;52.272;9.580;2023-11-19T12:00:32;14.80;99.90
21167;DHT22;10741;52.272;9.580;2023-11-19T12:03:02;14.50;99.90
21167;DHT22;10741;52.272;9.580;2023-11-19T12:05:30;14.20;99.90
21167;DHT22;10741;52.272;9.580;2023-11-19T12:07:57;13.80;99.90
21167;DHT22;10741;52.272;9.580;2023-11-19T12:10:24;13.60;99.90
21167;DHT22;10741;52.272;9.580;2023-11-19T12:12:53;13.50;99.90
21167;DHT22;10741;52.272;9.580;2023-11-19T12:15:19;13.30;99.90
21167;DHT22;10741;52.272;9.580;2023-11-19T12:17:50;13.30;99.90
21167;DHT22;10741;52.272;9.580;2023-11-19T12:20:23;13.30;99.90
21167;DHT22;10741;52.272;9.580;2023-11-19T12:22:49;13.10;99.90
21167;DHT22;10741;52.272;9.580;2023-11-19T12:25:17;12.90;99.90
21167;DHT22;10741;52.272;9.580;2023-11-19T12:27:46;12.80;99.90
21167;DHT22;10741;52.272;9.580;2023-11-19T12:30:12;12.80;99.90
21167;DHT22;10741;52.272;9.580;2023-11-19T12:32:43;12.70;99.90
21167;DHT22;10741;52.272;9.580;2023-11-19T12:35:10;12.70;99.90
21167;DHT22;10741;52.272;9.580;2023-11-19T12:37:47;12.60;99.90
21167;DHT22;10741;52.272;9.580;2023-11-19T12:40:23;12.60;99.90
21167;DHT22;10741;52.272;9.580;2023-11-19T12:42:49;12.50;99.90
21167;DHT22;10741;52.272;9.580;2023-11-19T12:45:16;12.30;99.90
21167;DHT22;10741;52.272;9.580;2023-11-19T12:47:45;12.30;99.90
21167;DHT22;10741;52.272;9.580;2023-11-19T12:50:16;12.30;99.90
21167;DHT22;10741;52.272;9.580;2023-11-19T12:52:58;12.30;99.90
21167;DHT22;10741;52.272;9.580;2023-11-19T12:55:26;12.20;99.90
21167;DHT22;10741;52.272;9.580;2023-11-19T12:57:52;12.20;99.90
21167;DHT22;10741;52.272;9.580;2023-11-19T13:00:21;12.10;99.90
21167;DHT22;10741;52.272;9.580;2023-11-19T13:02:51;12.10;99.90
21167;DHT22;10741;52.272;9.580;2023-11-19T13:05:35;12.10;99.90
21167;DHT22;10741;52.272;9.580;2023-11-19T13:08:09;12.00;99.90
21167;DHT22;10741;52.272;9.580;2023-11-19T13:11:04;12.00;99.90
21167;DHT22;10741;52.272;9.580;2023-11-19T13:13:31;12.00;99.90
21167;DHT22;10741;52.272;9.580;2023-11-19T13:16:04;11.90;99.90
21167;DHT22;10741;52.272;9.580;2023-11-19T13:18:34;11.90;99.90
21167;DHT22;10741;52.272;9.580;2023-11-19T13:21:00;11.90;99.90
21167;DHT22;10741;52.272;9.580;2023-11-19T13:23:26;11.90;99.90
21167;DHT22;10741;52.272;9.580;2023-11-19T13:25:51;12.00;99.90
21167;DHT22;10741;52.272;9.580;2023-11-19T13:28:17;12.00;99.90
21167;DHT22;10741;52.272;9.580;2023-11-19T13:30:43;12.10;99.90
21167;DHT22;10741;52.272;9.580;2023-11-19T13:33:09;12.10;99.90
21167;DHT22;10741;52.272;9.580;2023-11-19T13:35:38;12.20;99.90
21167;DHT22;10741;52.272;9.580;2023-11-19T13:38:06;12.20;99.90
21167;DHT22;10741;52.272;9.580;2023-11-19T13:40:34;12.30;99.90
21167;DHT22;10741;52.272;9.580;2023-11-19T13:43:00;12.30;99.90
21167;DHT22;10741;52.272;9.580;2023-11-19T13:45:25;12.40;99.90
21167;DHT22;10741;52.272;9.580;2023-11-19T13:47:51;12.30;99.90
21167;DHT22;10741;52.272;9.580;2023-11-19T13:50:18;12.30;99.90
21167;DHT22;10741;52.272;9.580;2023-11-19T13:52:44;12.20;99.90
21167;DHT22;10741;52.272;9.580;2023-11-19T13:55:12;12.10;99.90
21167;DHT22;10741;52.272;9.580;2023-11-19T13:57:39;12.10;99.90
21167;DHT22;10741;52.272;9.580;2023-11-19T14:00:06;12.00;99.90
21167;DHT22;10741;52.272;9.580;2023-11-19T14:02:36;12.00;99.90
21167;DHT22;10741;52.272;9.580;2023-11-19T14:05:02;12.00;99.90
21167;DHT22;10741;52.272;9.580;2023-11-19T14:07:28;12.10;99.90
21167;DHT22;10741;52.272;9.580;2023-11-19T14:09:54;12.10;99.90
21167;DHT22;10741;52.272;9.580;2023-11-19T14:12:20;12.10;99.90
21167;DHT22;10741;52.272;9.580;2023-11-19T14:14:45;12.10;99.90
21167;DHT22;10741;52.272;9.580;2023-11-19T14:17:11;12.20;99.90
21167;DHT22;10741;52.272;9.580;2023-11-19T14:19:38;12.10;99.90
21167;DHT22;10741;52.272;9.580;2023-11-19T14:22:05;12.10;99.90
21167;DHT22;10741;52.272;9.580;2023-11-19T14:24:31;12.00;99.90
21167;DHT22;10741;52.272;9.580;2023-11-19T14:26:57;12.00;99.90
21167;DHT22;10741;52.272;9.580;2023-11-19T14:29:26;11.90;99.90
21167;DHT22;10741;52.272;9.580;2023-11-19T14:31:52;11.90;99.90
21167;DHT22;10741;52.272;9.580;2023-11-19T14:34:21;12.00;99.90
21167;DHT22;10741;52.272;9.580;2023-11-19T14:36:47;12.00;99.90
21167;DHT22;10741;52.272;9.580;2023-11-19T14:39:13;12.10;99.90
21167;DHT22;10741;52.272;9.580;2023-11-19T14:41:39;12.20;99.90
21167;DHT22;10741;52.272;9.580;2023-11-19T14:44:05;12.20;99.90
21167;DHT22;10741;52.272;9.580;2023-11-19T14:46:31;12.20;99.90
21167;DHT22;10741;52.272;9.580;2023-11-19T14:48:57;12.10;99.90
21167;DHT22;10741;52.272;9.580;2023-11-19T14:51:23;12.10;99.90
21167;DHT22;10741;52.272;9.580;2023-11-19T14:53:49;12.00;99.90
21167;DHT22;10741;52.272;9.580;2023-11-19T14:56:15;12.00;99.90
21167;DHT22;10741;52.272;9.580;2023-11-19T14:58:41;12.00;99.90
21167;DHT22;10741;52.272;9.580;2023-11-19T15:01:12;12.00;99.90
21167;DHT22;10741;52.272;9.580;2023-11-19T15:03:37;12.10;99.90
21167;DHT22;10741;52.272;9.580;2023-11-19T15:06:03;12.10;99.90
21167;DHT22;10741;52.272;9.580;2023-11-19T15:08:29;12.00;99.90
21167;DHT22;10741;52.272;9.580;2023-11-19T15:10:56;12.00;99.90
21167;DHT22;10741;52.272;9.580;2023-11-19T15:13:23;11.90;99.90
21167;DHT22;10741;52.272;9.580;2023-11-19T15:15:50;11.90;99.90
21167;DHT22;10741;52.272;9.580;2023-11-19T15:18:15;11.90;99.90
21167;DHT22;10741;52.272;9.580;2023-11-19T15:20:43;11.90;99.90
21167;DHT22;10741;52.272;9.580;2023-11-19T15:23:13;12.00;99.90
21167;DHT22;10741;52.272;9.580;2023-11-19T15:25:38;11.90;99.90
21167;DHT22;10741;52.272;9.580;2023-11-19T15:28:04;11.80;99.90
21167;DHT22;10741;52.272;9.580;2023-11-19T15:30:30;11.70;99.90
21167;DHT22;10741;52.272;9.580;2023-11-19T15:32:56;11.70;99.90
21167;DHT22;10741;52.272;9.580;2023-11-19T15:35:21;11.70;99.90
21167;DHT22;10741;52.272;9.580;2023-11-19T15:37:47;11.70;99.90
21167;DHT22;10741;52.272;9.580;2023-11-19T15:40:13;11.70;99.90
21167;DHT22;10741;52.272;9.580;2023-11-19T15:42:40;11.70;99.90
21167;DHT22;10741;52.272;9.580;2023-11-19T15:45:06;11.70;99.90
21167;DHT22;10741;52.272;9.580;2023-11-19T15:47:36;11.60;99.90